Portada
METAR-TAF:

METAR-TAF

Aeroports :

Broome, Austràlia

latitud: 17-57S, longitud: 122-13E, altitud: 17 m

Observació

L'informe es va fer fa 19 minuts, a les 13:00 UTC
Vent calma
Temperatura 13°C
Humitat 82%
Pressió 1016 hPa
Visibilitat 10 km o més

METAR: YBRM 151300Z AUTO 00000KT 9999 // NCD 13/10 Q1016 RF00.0/000.0

Hora: 21:19 (13:19 UTC)

Pronòstic

L'informe es va fer fa 2 hores i 11 minuts, a les 11:08 UTC
Pronòstic vàlid del 15 a les 12 UTC al 16 a les 12 UTC
Vent 8 kt del Sud/Sud-Oest
Visibilitat 10 km o més
sense núvols per sota de 1500 mi sense presència de cumulonimbus.
A partir de les 15 a les 1800 UTC
Vent 8 kt del Est/Sud-Est
Visibilitat 10 km o més
sense núvols per sota de 1500 mi sense presència de cumulonimbus.
A partir de les 16 a les 0600 UTC
Vent 8 kt del Oest/Sud-Oest
Visibilitat 10 km o més
sense núvols per sota de 1500 mi sense presència de cumulonimbus.

TAF: YBRM 151108Z 1512/1612 20008KT CAVOK FM151800 12008KT CAVOK FM160600 25008KT CAVOK

Observacions i pronòstics meteorològics de més de 4000 aeroports (METAR i TAF).

Les estacions disponibles són els punts grocs i vermells al mapa.

Posi el ratolí al punt desitjat per veure el nom de l'estació.

Feu clic per veure les observacions i els pronòstics meteorològics.

Per canviar el mapa: feu clic els botons verds amb una creu de color negre per apropar; al botó verd amb un guió per allunyar la imatge; o en les fletxes verdes per a mapes adjacents.


METAR-TAF: